Time;durP1;ratioP1;P1;durP2;ratioP2;P2;SDS_P1;SDS_P2;PMS_P1;PMS_P2;Temp;Humidity;BMP_temperature;BMP_pressure;BME280_temperature;BME280_humidity;BME280_pressure;Samples;Min_cycle;Max_cycle;Signal;HPM_P1;HPM_P2
2023/10/25 00:01:09;;;;;;;1999.90;999.90;;;8.90;99.90;;;;;;5079052;28;20115;-72
2023/10/25 00:03:35;;;;;;;1999.90;999.90;;;9.00;99.90;;;;;;5097282;28;20032;-72
2023/10/25 00:06:01;;;;;;;1999.90;999.90;;;9.00;99.90;;;;;;5078752;28;20032;-72
2023/10/25 00:08:27;;;;;;;1999.90;999.90;;;9.00;99.90;;;;;;5097128;28;20080;-71
2023/10/25 00:11:06;;;;;;;1999.90;999.90;;;9.10;99.90;;;;;;5096995;28;20037;-71
2023/10/25 00:13:32;;;;;;;1999.90;999.90;;;9.20;99.90;;;;;;5096846;28;20028;-71
2023/10/25 00:15:58;;;;;;;1999.90;999.90;;;9.20;99.90;;;;;;5096686;28;20074;-71
2023/10/25 00:18:26;;;;;;;1999.90;999.90;;;9.20;99.90;;;;;;5097160;28;20087;-72
2023/10/25 00:20:52;;;;;;;1999.90;999.90;;;9.20;99.90;;;;;;5078609;28;20083;-72
2023/10/25 00:23:19;;;;;;;1999.90;999.90;;;9.20;99.90;;;;;;5096983;28;20034;-72
2023/10/25 00:25:47;;;;;;;1999.90;999.90;;;9.20;99.90;;;;;;5097032;28;20493;-73
2023/10/25 00:28:12;;;;;;;1999.90;999.90;;;9.20;99.90;;;;;;5097176;28;20060;-71
2023/10/25 00:30:38;;;;;;;1999.90;999.90;;;9.20;99.90;;;;;;5096989;28;20064;-72
2023/10/25 00:33:04;;;;;;;1999.90;999.90;;;9.20;99.90;;;;;;5096935;28;20040;-72
2023/10/25 00:35:29;;;;;;;1999.90;999.90;;;9.20;99.90;;;;;;5096547;28;20135;-71
2023/10/25 00:37:55;;;;;;;1999.90;999.90;;;9.10;99.90;;;;;;5096648;28;20108;-72
2023/10/25 00:40:20;;;;;;;1999.90;999.90;;;9.20;99.90;;;;;;5096807;28;20033;-72
2023/10/25 00:42:46;;;;;;;1999.90;999.90;;;9.10;99.90;;;;;;5096748;28;20025;-71
2023/10/25 00:45:12;;;;;;;1999.90;999.90;;;9.20;99.90;;;;;;5096512;28;20033;-71
2023/10/25 00:47:38;;;;;;;1999.90;999.90;;;9.10;99.90;;;;;;5096485;28;20028;-72
2023/10/25 00:50:04;;;;;;;1999.90;999.90;;;9.10;99.90;;;;;;5096563;28;20037;-72
2023/10/25 00:52:30;;;;;;;1999.90;999.90;;;9.10;99.90;;;;;;5078099;28;20035;-71
2023/10/25 00:54:56;;;;;;;1999.90;999.90;;;9.10;99.90;;;;;;5096466;28;20040;-72
2023/10/25 00:57:22;;;;;;;1999.90;999.90;;;9.20;99.90;;;;;;5096144;28;20037;-72
2023/10/25 00:59:48;;;;;;;1999.90;999.90;;;9.20;99.90;;;;;;5078138;28;20391;-71
2023/10/25 01:02:14;;;;;;;1999.90;999.90;;;9.20;99.90;;;;;;5096566;28;20040;-71
2023/10/25 01:04:40;;;;;;;1999.90;999.90;;;9.10;99.90;;;;;;5096097;28;20609;-73
2023/10/25 01:07:05;;;;;;;1999.90;999.90;;;9.20;99.90;;;;;;5096132;28;20063;-71
2023/10/25 01:09:32;;;;;;;1999.90;999.90;;;9.10;99.90;;;;;;5096260;28;20040;-71
2023/10/25 01:11:58;;;;;;;1999.90;999.90;;;9.00;99.90;;;;;;5096408;28;20036;-71
2023/10/25 01:14:27;;;;;;;1999.90;999.90;;;9.00;99.90;;;;;;5096342;28;20040;-71
2023/10/25 01:16:53;;;;;;;1999.90;999.90;;;9.10;99.90;;;;;;5077622;28;20040;-73
2023/10/25 01:19:18;;;;;;;1999.90;999.90;;;9.10;99.90;;;;;;5077830;28;20040;-71
2023/10/25 01:21:44;;;;;;;1999.90;999.90;;;9.20;99.90;;;;;;5096322;28;20057;-71
2023/10/25 01:24:10;;;;;;;1999.90;999.90;;;9.20;99.90;;;;;;5096337;28;20037;-73
2023/10/25 01:26:36;;;;;;;1999.90;999.90;;;9.20;99.90;;;;;;5077355;28;20115;-71
2023/10/25 01:29:02;;;;;;;1999.90;999.90;;;9.30;99.90;;;;;;5096628;28;20114;-71
2023/10/25 01:31:27;;;;;;;1999.90;999.90;;;9.20;99.90;;;;;;5096221;28;20119;-72
2023/10/25 01:33:53;;;;;;;1999.90;999.90;;;9.20;99.90;;;;;;5095578;28;20119;-71
2023/10/25 01:36:19;;;;;;;1999.90;999.90;;;9.10;99.90;;;;;;5095785;28;20032;-72
2023/10/25 01:38:44;;;;;;;1999.90;999.90;;;9.00;99.90;;;;;;5095091;28;20029;-72
2023/10/25 01:41:15;;;;;;;1999.90;999.90;;;9.00;99.90;;;;;;5096224;28;20532;-72
2023/10/25 01:43:42;;;;;;;1999.90;999.90;;;9.00;99.90;;;;;;5095846;28;20861;-72
2023/10/25 01:46:07;;;;;;;1999.90;999.90;;;8.90;99.90;;;;;;5095585;28;20081;-73
2023/10/25 01:48:33;;;;;;;1999.90;999.90;;;8.90;99.90;;;;;;5077287;28;20150;-71
2023/10/25 01:50:58;;;;;;;1999.90;999.90;;;8.90;99.90;;;;;;5077169;28;20037;-71
2023/10/25 01:53:24;;;;;;;1999.90;999.90;;;9.00;99.90;;;;;;5095224;28;20094;-73
2023/10/25 01:55:50;;;;;;;1999.90;999.90;;;8.90;99.90;;;;;;5095175;28;20123;-71
2023/10/25 01:58:16;;;;;;;1999.90;999.90;;;8.80;99.90;;;;;;5095322;28;20062;-72
2023/10/25 02:00:41;;;;;;;1999.90;999.90;;;8.80;99.90;;;;;;5095596;28;20031;-71
2023/10/25 02:03:07;;;;;;;1999.90;999.90;;;8.80;99.90;;;;;;5095632;28;20032;-71
2023/10/25 02:05:33;;;;;;;1999.90;999.90;;;8.80;99.90;;;;;;5095298;28;20525;-71
2023/10/25 02:07:58;;;;;;;1999.90;999.90;;;8.80;99.90;;;;;;5095278;28;20040;-72
2023/10/25 02:10:24;;;;;;;1999.90;999.90;;;8.70;99.90;;;;;;5076882;28;20037;-72
2023/10/25 02:12:49;;;;;;;1999.90;999.90;;;8.60;99.90;;;;;;5077002;28;20107;-72
2023/10/25 02:15:15;;;;;;;1999.90;999.90;;;8.60;99.90;;;;;;5095307;28;20056;-71
2023/10/25 02:17:41;;;;;;;1999.90;999.90;;;8.50;99.90;;;;;;5076618;28;20032;-71
2023/10/25 02:20:07;;;;;;;1999.90;999.90;;;8.50;99.90;;;;;;5095288;28;20044;-72
2023/10/25 02:22:32;;;;;;;1999.90;999.90;;;8.40;99.90;;;;;;5094731;28;20028;-71
2023/10/25 02:24:58;;;;;;;1999.90;999.90;;;8.50;99.90;;;;;;5094966;28;20040;-71
2023/10/25 02:27:23;;;;;;;1999.90;999.90;;;8.50;99.90;;;;;;5094998;28;20032;-72
2023/10/25 02:29:49;;;;;;;1999.90;999.90;;;8.50;99.90;;;;;;5095214;28;20036;-73
2023/10/25 02:32:15;;;;;;;1999.90;999.90;;;8.60;99.90;;;;;;5076683;28;20036;-71
2023/10/25 02:34:40;;;;;;;1999.90;999.90;;;8.60;99.90;;;;;;5076390;28;20062;-71
2023/10/25 02:37:06;;;;;;;1999.90;999.90;;;8.70;99.90;;;;;;5094609;28;20446;-72
2023/10/25 02:39:32;;;;;;;1999.90;999.90;;;8.70;99.90;;;;;;5095142;28;20039;-71
2023/10/25 02:41:57;;;;;;;1999.90;999.90;;;8.70;99.90;;;;;;5076645;28;20032;-71
2023/10/25 02:44:23;;;;;;;1999.90;999.90;;;8.80;99.90;;;;;;5094673;28;20037;-72
2023/10/25 02:46:48;;;;;;;1999.90;999.90;;;8.80;99.90;;;;;;5076134;28;20041;-72
2023/10/25 02:49:14;;;;;;;1999.90;999.90;;;8.90;99.90;;;;;;5076409;28;20075;-71
2023/10/25 02:51:39;;;;;;;1999.90;999.90;;;8.90;99.90;;;;;;5094939;28;20041;-71
2023/10/25 02:54:05;;;;;;;1999.90;999.90;;;8.90;99.90;;;;;;5094636;28;20037;-72
2023/10/25 02:56:31;;;;;;;1999.90;999.90;;;8.90;99.90;;;;;;5094715;28;20032;-71
2023/10/25 02:58:56;;;;;;;1999.90;999.90;;;8.90;99.90;;;;;;5094953;28;20470;-71
2023/10/25 03:01:23;;;;;;;1999.90;999.90;;;8.90;99.90;;;;;;5076421;28;20041;-72
2023/10/25 03:03:50;;;;;;;1999.90;999.90;;;9.00;99.90;;;;;;5094660;28;20493;-71
2023/10/25 03:06:15;;;;;;;1999.90;999.90;;;9.00;99.90;;;;;;5094475;28;20032;-71
2023/10/25 03:08:41;;;;;;;1999.90;999.90;;;8.90;99.90;;;;;;5076226;28;20028;-71
2023/10/25 03:11:07;;;;;;;1999.90;999.90;;;8.90;99.90;;;;;;5094345;28;20036;-73
2023/10/25 03:13:32;;;;;;;1999.90;999.90;;;8.80;99.90;;;;;;5094109;28;20083;-71
2023/10/25 03:15:58;;;;;;;1999.90;999.90;;;8.80;99.90;;;;;;5076043;28;20040;-71
2023/10/25 03:18:23;;;;;;;1999.90;999.90;;;8.80;99.90;;;;;;5094601;28;20037;-72
2023/10/25 03:20:49;;;;;;;1999.90;999.90;;;8.80;99.90;;;;;;5094658;28;20039;-71
2023/10/25 03:23:14;;;;;;;1999.90;999.90;;;8.80;99.90;;;;;;5094664;28;20051;-71
2023/10/25 03:25:40;;;;;;;1999.90;999.90;;;8.80;99.90;;;;;;5094185;28;20390;-72
2023/10/25 03:28:05;;;;;;;1999.90;999.90;;;8.70;99.90;;;;;;5094477;28;20025;-71
2023/10/25 03:30:32;;;;;;;1999.90;999.90;;;8.80;99.90;;;;;;5094369;28;20106;-71
2023/10/25 03:32:58;;;;;;;1999.90;999.90;;;8.70;99.90;;;;;;5094389;28;20035;-71
2023/10/25 03:35:25;;;;;;;1999.90;999.90;;;8.70;99.90;;;;;;5093906;28;20044;-71
2023/10/25 03:37:50;;;;;;;1999.90;999.90;;;8.60;99.90;;;;;;5094016;28;20094;-71
2023/10/25 03:40:16;;;;;;;1999.90;999.90;;;8.70;99.90;;;;;;5094452;28;20082;-71
2023/10/25 03:42:41;;;;;;;1999.90;999.90;;;8.70;99.90;;;;;;5075911;28;20037;-72
2023/10/25 03:45:08;;;;;;;1999.90;999.90;;;8.80;99.90;;;;;;5093992;28;20032;-72
2023/10/25 03:47:40;;;;;;;1999.90;999.90;;;8.80;99.90;;;;;;5093923;28;20033;-71
2023/10/25 03:50:06;;;;;;;1999.90;999.90;;;8.80;99.90;;;;;;5096023;28;20502;-71
2023/10/25 03:52:32;;;;;;;1999.90;999.90;;;8.80;99.90;;;;;;5079109;28;20068;-73
2023/10/25 03:54:58;;;;;;;1999.90;999.90;;;8.90;99.90;;;;;;5097354;28;20056;-71
2023/10/25 03:57:24;;;;;;;1999.90;999.90;;;8.90;99.90;;;;;;5097295;28;20032;-72
2023/10/25 03:59:50;;;;;;;1999.90;999.90;;;8.90;99.90;;;;;;5097521;28;20032;-71
2023/10/25 04:02:15;;;;;;;1999.90;999.90;;;8.90;99.90;;;;;;5079069;28;20040;-72
2023/10/25 04:04:41;;;;;;;1999.90;999.90;;;8.90;99.90;;;;;;5078801;28;20072;-71
2023/10/25 04:07:06;;;;;;;1999.90;999.90;;;8.90;99.90;;;;;;5078703;28;20041;-71
2023/10/25 04:09:32;;;;;;;1999.90;999.90;;;9.00;99.90;;;;;;5097298;28;20068;-72
2023/10/25 04:11:57;;;;;;;1999.90;999.90;;;9.00;99.90;;;;;;5097250;28;20036;-73
2023/10/25 04:14:23;;;;;;;1999.90;999.90;;;9.00;99.90;;;;;;5097075;28;20041;-71
2023/10/25 04:16:48;;;;;;;1999.90;999.90;;;9.00;99.90;;;;;;5078464;28;20478;-71
2023/10/25 04:19:14;;;;;;;1999.90;999.90;;;8.90;99.90;;;;;;5097267;28;20041;-72
2023/10/25 04:21:41;;;;;;;1999.90;999.90;;;8.90;99.90;;;;;;5097189;28;20036;-71
2023/10/25 04:24:07;;;;;;;1999.90;999.90;;;8.90;99.90;;;;;;5096886;28;20028;-71
2023/10/25 04:26:32;;;;;;;1999.90;999.90;;;8.90;99.90;;;;;;5078484;28;20039;-71
2023/10/25 04:28:58;;;;;;;1999.90;999.90;;;8.90;99.90;;;;;;5078526;28;20029;-71
2023/10/25 04:31:23;;;;;;;1999.90;999.90;;;8.90;99.90;;;;;;5096749;28;20043;-71
2023/10/25 04:33:49;;;;;;;1999.90;999.90;;;8.90;99.90;;;;;;5096308;28;20036;-71
2023/10/25 04:36:14;;;;;;;1999.90;999.90;;;8.90;99.90;;;;;;5096678;28;20107;-71
2023/10/25 04:38:40;;;;;;;1999.90;999.90;;;8.90;99.90;;;;;;5096947;28;20036;-72
2023/10/25 04:41:06;;;;;;;1999.90;999.90;;;8.90;99.90;;;;;;5096901;28;20048;-71
2023/10/25 04:43:31;;;;;;;1999.90;999.90;;;8.80;99.90;;;;;;5096606;28;20033;-71
2023/10/25 04:45:57;;;;;;;1999.90;999.90;;;8.90;99.90;;;;;;5078002;28;20043;-71
2023/10/25 04:48:23;;;;;;;1999.90;999.90;;;8.90;99.90;;;;;;5078282;28;20105;-73
2023/10/25 04:50:48;;;;;;;1999.90;999.90;;;8.90;99.90;;;;;;5078061;28;20120;-71
2023/10/25 04:53:14;;;;;;;1999.90;999.90;;;8.90;99.90;;;;;;5096754;28;20115;-72
2023/10/25 04:55:44;;;;;;;1999.90;999.90;;;8.90;99.90;;;;;;5096394;28;20088;-76
2023/10/25 04:58:10;;;;;;;1999.90;999.90;;;8.90;99.90;;;;;;5078639;28;20067;-71
2023/10/25 05:00:36;;;;;;;1999.90;999.90;;;8.80;99.90;;;;;;5095820;28;20454;-73
2023/10/25 05:03:02;;;;;;;1999.90;999.90;;;8.80;99.90;;;;;;5096226;28;20036;-71
2023/10/25 05:05:27;;;;;;;1999.90;999.90;;;8.70;99.90;;;;;;5096202;28;20428;-72
2023/10/25 05:07:53;;;;;;;1999.90;999.90;;;8.70;99.90;;;;;;5096102;28;20051;-72
2023/10/25 05:10:19;;;;;;;1999.90;999.90;;;8.70;99.90;;;;;;5096570;28;20037;-72
2023/10/25 05:12:47;;;;;;;1999.90;999.90;;;8.70;99.90;;;;;;5096546;28;20024;-78
2023/10/25 05:15:15;;;;;;;1999.90;999.90;;;8.70;99.90;;;;;;5077818;28;20036;-73
2023/10/25 05:17:46;;;;;;;1999.90;999.90;;;8.70;99.90;;;;;;5096267;28;20086;-70
2023/10/25 05:20:13;;;;;;;1999.90;999.90;;;8.80;99.90;;;;;;5089565;28;20057;-70
2023/10/25 05:22:47;;;;;;;1999.90;999.90;;;8.80;99.90;;;;;;5083078;28;20124;-73
2023/10/25 05:25:14;;;;;;;1999.90;999.90;;;8.70;99.90;;;;;;5087908;28;20037;-71
2023/10/25 05:27:39;;;;;;;1999.90;999.90;;;8.60;99.90;;;;;;5079932;28;20660;-74
2023/10/25 05:30:07;;;;;;;1999.90;999.90;;;8.60;99.90;;;;;;5059867;28;20114;-69
2023/10/25 05:32:35;;;;;;;1999.90;999.90;;;8.60;99.90;;;;;;5075554;28;20032;-69
2023/10/25 05:35:02;;;;;;;1999.90;999.90;;;8.50;99.90;;;;;;5124140;22;20044;-69
2023/10/25 05:37:29;;;;;;;1999.90;999.90;;;8.50;99.90;;;;;;5156710;27;20071;-69
2023/10/25 05:39:55;;;;;;;1999.90;999.90;;;8.60;99.90;;;;;;5157595;27;20027;-70
2023/10/25 05:42:21;;;;;;;1999.90;999.90;;;8.60;99.90;;;;;;5156714;27;20039;-69
2023/10/25 05:44:53;;;;;;;1999.90;999.90;;;8.50;99.90;;;;;;5156425;27;20046;-69
2023/10/25 05:47:26;;;;;;;1999.90;999.90;;;8.50;99.90;;;;;;5157027;27;20031;-69
2023/10/25 05:49:52;;;;;;;1999.90;999.90;;;8.40;99.90;;;;;;5157356;27;20035;-69
2023/10/25 05:52:20;;;;;;;1999.90;999.90;;;8.40;99.90;;;;;;5157192;27;20050;-69
2023/10/25 05:54:46;;;;;;;1999.90;999.90;;;8.40;99.90;;;;;;5156990;27;20030;-69
2023/10/25 05:57:12;;;;;;;1999.90;999.90;;;8.30;99.90;;;;;;5156373;27;20038;-70
2023/10/25 05:59:38;;;;;;;1999.90;999.90;;;8.20;99.90;;;;;;5155701;27;20118;-69
2023/10/25 06:02:14;;;;;;;1999.90;999.90;;;8.20;99.90;;;;;;5157256;27;20107;-69
2023/10/25 06:04:42;;;;;;;1999.90;999.90;;;8.20;99.90;;;;;;5156872;27;20111;-69
2023/10/25 06:07:13;;;;;;;1999.90;999.90;;;8.10;99.90;;;;;;5156791;27;20481;-69
2023/10/25 06:09:39;;;;;;;1999.90;999.90;;;8.10;99.90;;;;;;5156960;27;20070;-69
2023/10/25 06:12:06;;;;;;;1999.90;999.90;;;8.00;99.90;;;;;;5156743;27;20027;-69
2023/10/25 06:14:32;;;;;;;1999.90;999.90;;;8.10;99.90;;;;;;5156524;27;20035;-69
2023/10/25 06:16:58;;;;;;;1999.90;999.90;;;8.10;99.90;;;;;;5156840;27;20392;-69
2023/10/25 06:19:25;;;;;;;1999.90;999.90;;;8.00;99.90;;;;;;5156898;27;20039;-69
2023/10/25 06:21:51;;;;;;;1999.90;999.90;;;8.00;99.90;;;;;;5157029;27;20027;-69
2023/10/25 06:24:16;;;;;;;1999.90;999.90;;;8.00;99.90;;;;;;5156767;27;20035;-69
2023/10/25 06:26:42;;;;;;;1999.90;999.90;;;7.90;99.90;;;;;;5156673;27;20492;-69
2023/10/25 06:29:08;;;;;;;1999.90;999.90;;;7.90;99.90;;;;;;5157056;27;20484;-69
2023/10/25 06:31:33;;;;;;;1999.90;999.90;;;7.90;99.90;;;;;;5156993;27;20122;-69
2023/10/25 06:33:59;;;;;;;1999.90;999.90;;;7.90;99.90;;;;;;5156463;27;20028;-70
2023/10/25 06:36:25;;;;;;;1999.90;999.90;;;8.00;99.90;;;;;;5156402;27;20030;-69
2023/10/25 06:38:51;;;;;;;1999.90;999.90;;;8.00;99.90;;;;;;5172385;27;20119;-69
2023/10/25 06:41:18;;;;;;;1999.90;999.90;;;8.10;99.90;;;;;;5172701;27;20110;-69
2023/10/25 06:43:44;;;;;;;1999.90;999.90;;;8.20;99.90;;;;;;5156719;27;20506;-69
2023/10/25 06:46:11;;;;;;;1999.90;999.90;;;8.30;99.90;;;;;;5156463;27;20110;-69
2023/10/25 06:48:38;;;;;;;1999.90;999.90;;;8.40;99.90;;;;;;5156369;27;20118;-69
2023/10/25 06:51:05;;;;;;;1999.90;999.90;;;8.60;99.90;;;;;;5156410;27;20083;-69
2023/10/25 06:53:31;;;;;;;1999.90;999.90;;;8.70;99.90;;;;;;5156395;27;20167;-69
2023/10/25 06:55:57;;;;;;;1999.90;999.90;;;8.90;99.90;;;;;;5155503;27;20034;-69
2023/10/25 06:58:23;;;;;;;1999.90;999.90;;;9.00;99.90;;;;;;5156194;27;20039;-69
2023/10/25 07:00:50;;;;;;;1999.90;999.90;;;9.20;99.90;;;;;;5156022;27;20027;-69
2023/10/25 07:03:20;;;;;;;1999.90;999.90;;;9.30;99.90;;;;;;5156193;27;20054;-69
2023/10/25 07:05:46;;;;;;;1999.90;999.90;;;9.30;99.90;;;;;;5155539;27;20030;-69
2023/10/25 07:08:12;;;;;;;1999.90;999.90;;;9.40;99.90;;;;;;5155965;27;20039;-69
2023/10/25 07:10:38;;;;;;;1999.90;999.90;;;9.40;99.90;;;;;;5154588;27;20597;-69
2023/10/25 07:13:04;;;;;;;1999.90;999.90;;;9.50;99.90;;;;;;5156233;27;20027;-69
2023/10/25 07:15:31;;;;;;;1999.90;999.90;;;9.50;99.90;;;;;;5156108;27;20035;-69
2023/10/25 07:17:56;;;;;;;1999.90;999.90;;;9.60;99.90;;;;;;5155719;27;20400;-69
2023/10/25 07:20:22;;;;;;;1999.90;999.90;;;9.70;99.90;;;;;;5156154;27;20039;-69
2023/10/25 07:22:48;;;;;;;1999.90;999.90;;;9.70;99.90;;;;;;5156338;27;20038;-69
2023/10/25 07:25:13;;;;;;;1999.90;999.90;;;9.70;99.90;;;;;;5157985;27;20077;-69
2023/10/25 07:27:39;;;;;;;1999.90;999.90;;;9.70;99.90;;;;;;5159551;27;20032;-69
2023/10/25 07:30:05;;;;;;;1999.90;999.90;;;9.70;99.90;;;;;;5159760;27;20035;-69
2023/10/25 07:32:32;;;;;;;1999.90;999.90;;;9.70;99.90;;;;;;5159612;27;20023;-69
2023/10/25 07:34:57;;;;;;;1999.90;999.90;;;9.80;99.90;;;;;;5158602;27;20035;-69
2023/10/25 07:37:23;;;;;;;1999.90;999.90;;;9.80;99.90;;;;;;5159436;27;20032;-69
2023/10/25 07:39:49;;;;;;;1999.90;999.90;;;9.80;99.90;;;;;;5159235;27;20485;-69
2023/10/25 07:42:14;;;;;;;1999.90;999.90;;;9.80;99.90;;;;;;5159229;27;20032;-69
2023/10/25 07:44:40;;;;;;;1999.90;999.90;;;10.00;99.90;;;;;;5159387;27;20027;-69
2023/10/25 07:47:05;;;;;;;1999.90;999.90;;;10.10;99.90;;;;;;5159027;27;20032;-69
2023/10/25 07:49:35;;;;;;;1999.90;999.90;;;10.30;99.90;;;;;;5159200;27;20043;-69
2023/10/25 07:52:01;;;;;;;1999.90;999.90;;;10.40;99.90;;;;;;5159369;27;20034;-69
2023/10/25 07:54:27;;;;;;;1999.90;999.90;;;10.40;99.90;;;;;;5158861;27;20072;-69
2023/10/25 07:56:52;;;;;;;1999.90;999.90;;;10.30;99.90;;;;;;5159015;27;20104;-69
2023/10/25 07:59:18;;;;;;;1999.90;999.90;;;10.10;99.90;;;;;;5159347;27;20108;-69
2023/10/25 08:01:44;;;;;;;1999.90;999.90;;;10.00;99.90;;;;;;5159122;27;20034;-69
2023/10/25 08:04:10;;;;;;;1999.90;999.90;;;10.00;99.90;;;;;;5158858;27;20110;-70
2023/10/25 08:06:36;;;;;;;1999.90;999.90;;;9.90;99.90;;;;;;5158944;27;20480;-69
2023/10/25 08:09:01;;;;;;;1999.90;999.90;;;9.90;99.90;;;;;;5159180;27;20088;-69
2023/10/25 08:11:27;;;;;;;1999.90;999.90;;;9.90;99.90;;;;;;5159150;27;20473;-69
2023/10/25 08:13:53;;;;;;;1999.90;999.90;;;10.00;99.90;;;;;;5158654;27;20088;-69
2023/10/25 08:16:18;;;;;;;1999.90;999.90;;;10.10;99.90;;;;;;5158726;27;20488;-69
2023/10/25 08:18:44;;;;;;;1999.90;999.90;;;10.10;99.90;;;;;;5174829;27;20429;-70
2023/10/25 08:21:13;;;;;;;1999.90;999.90;;;10.20;99.90;;;;;;5158937;27;20095;-70
2023/10/25 08:23:39;;;;;;;1999.90;999.90;;;10.40;99.90;;;;;;5158902;27;20034;-69
2023/10/25 08:26:05;;;;;;;1999.90;999.90;;;10.40;99.90;;;;;;5158347;27;20043;-70
2023/10/25 08:28:31;;;;;;;1999.90;999.90;;;10.50;99.90;;;;;;5158725;27;20031;-70
2023/10/25 08:30:56;;;;;;;1999.90;999.90;;;10.50;99.90;;;;;;5158645;27;20061;-70
2023/10/25 08:33:22;;;;;;;1999.90;999.90;;;10.50;99.90;;;;;;5158611;27;20039;-70
2023/10/25 08:35:47;;;;;;;1999.90;999.90;;;10.70;99.90;;;;;;5157333;27;20515;-69
2023/10/25 08:38:13;;;;;;;1999.90;999.90;;;10.70;99.90;;;;;;5158534;27;20034;-69
2023/10/25 08:40:40;;;;;;;1999.90;999.90;;;10.80;99.90;;;;;;5158489;27;20400;-69
2023/10/25 08:43:07;;;;;;;1999.90;999.90;;;10.90;99.90;;;;;;5158448;27;20027;-69
2023/10/25 08:45:36;;;;;;;1999.90;999.90;;;11.20;99.90;;;;;;5158104;27;20035;-70
2023/10/25 08:48:03;;;;;;;1999.90;999.90;;;11.20;99.90;;;;;;5157887;27;20023;-69
2023/10/25 08:50:30;;;;;;;1999.90;999.90;;;11.30;99.90;;;;;;5158156;27;20067;-69
2023/10/25 08:52:57;;;;;;;1999.90;999.90;;;11.40;99.90;;;;;;5158326;27;20031;-69
2023/10/25 08:55:23;;;;;;;1999.90;999.90;;;11.40;99.90;;;;;;5158078;27;20031;-70
2023/10/25 08:57:54;;;;;;;1999.90;999.90;;;11.50;99.90;;;;;;5157923;27;20504;-69
2023/10/25 09:00:20;;;;;;;1999.90;999.90;;;11.60;99.90;;;;;;5158192;27;20031;-70
2023/10/25 09:02:46;;;;;;;1999.90;999.90;;;11.70;99.90;;;;;;5158380;27;20038;-69
2023/10/25 09:05:12;;;;;;;1999.90;999.90;;;11.80;99.90;;;;;;5157805;27;20527;-69
2023/10/25 09:07:38;;;;;;;1999.90;999.90;;;11.90;99.90;;;;;;5158016;27;20038;-70
2023/10/25 09:10:17;;;;;;;1999.90;999.90;;;12.10;99.90;;;;;;5156418;27;20779;-69
2023/10/25 09:12:44;;;;;;;1999.90;999.90;;;12.20;99.90;;;;;;5156574;27;20047;-70
2023/10/25 09:15:09;;;;;;;1999.90;999.90;;;12.30;99.90;;;;;;5157346;27;20115;-70
2023/10/25 09:17:35;;;;;;;1999.90;999.90;;;12.40;99.90;;;;;;5157530;27;20030;-70
2023/10/25 09:20:01;;;;;;;1999.90;999.90;;;12.40;99.90;;;;;;5158001;27;20027;-70
2023/10/25 09:22:30;;;;;;;1999.90;999.90;;;12.40;99.90;;;;;;5157834;27;20027;-70
2023/10/25 09:24:58;;;;;;;1999.90;999.90;;;12.30;99.90;;;;;;5157449;27;20031;-70
2023/10/25 09:27:25;;;;;;;1999.90;999.90;;;12.20;99.90;;;;;;5157431;27;20031;-70
2023/10/25 09:29:51;;;;;;;1999.90;999.90;;;12.20;99.90;;;;;;5157414;27;20071;-70
2023/10/25 09:32:21;;;;;;;1999.90;999.90;;;12.20;99.90;;;;;;5156028;27;20484;-70
2023/10/25 09:34:48;;;;;;;1999.90;999.90;;;12.10;99.90;;;;;;5157018;27;20039;-70
2023/10/25 09:37:14;;;;;;;1999.90;999.90;;;12.10;99.90;;;;;;5157315;27;20023;-70
2023/10/25 09:39:40;;;;;;;1999.90;999.90;;;12.00;99.90;;;;;;5157419;27;20126;-70
2023/10/25 09:42:18;;;;;;;1999.90;999.90;;;12.00;99.90;;;;;;5157391;27;20118;-70
2023/10/25 09:44:47;;;;;;;1999.90;999.90;;;12.10;99.90;;;;;;5157193;27;20031;-70
2023/10/25 09:47:15;;;;;;;1999.90;999.90;;;12.00;99.90;;;;;;5156183;27;20027;-70
2023/10/25 09:49:51;;;;;;;1999.90;999.90;;;12.00;99.90;;;;;;5157058;27;20058;-70
2023/10/25 09:52:26;;;;;;;1999.90;999.90;;;12.00;99.90;;;;;;5157630;27;20034;-70
2023/10/25 09:55:21;;;;;;;1999.90;999.90;;;12.10;99.90;;;;;;5157125;27;20031;-70
2023/10/25 09:57:48;;;;;;;1999.90;999.90;;;12.20;99.90;;;;;;5157069;27;20062;-70
2023/10/25 10:00:14;;;;;;;1999.90;999.90;;;12.10;99.90;;;;;;5173281;27;20046;-70
2023/10/25 10:02:49;;;;;;;1999.90;999.90;;;12.20;99.90;;;;;;5157262;27;20042;-70
2023/10/25 10:05:17;;;;;;;1999.90;999.90;;;12.20;99.90;;;;;;5157095;27;20087;-70
2023/10/25 10:07:57;;;;;;;1999.90;999.90;;;12.20;99.90;;;;;;5156656;27;20031;-70
2023/10/25 10:10:34;;;;;;;1999.90;999.90;;;12.10;99.90;;;;;;5157237;27;20510;-70
2023/10/25 10:13:12;;;;;;;1999.90;999.90;;;12.10;99.90;;;;;;5156965;27;20035;-70
2023/10/25 10:16:01;;;;;;;1999.90;999.90;;;12.00;99.90;;;;;;5156684;27;20054;-70
2023/10/25 10:18:30;;;;;;;1999.90;999.90;;;12.00;99.90;;;;;;5156739;27;20049;-70
2023/10/25 10:21:01;;;;;;;1999.90;999.90;;;12.00;99.90;;;;;;5156943;27;20484;-70
2023/10/25 10:23:33;;;;;;;1999.90;999.90;;;12.00;99.90;;;;;;5156830;27;20467;-70
2023/10/25 10:25:59;;;;;;;1999.90;999.90;;;12.00;99.90;;;;;;5156069;27;20041;-70
2023/10/25 10:28:37;;;;;;;1999.90;999.90;;;12.00;99.90;;;;;;5156808;27;20430;-70
2023/10/25 10:31:03;;;;;;;1999.90;999.90;;;12.00;99.90;;;;;;5156569;27;20031;-70
2023/10/25 10:33:28;;;;;;;1999.90;999.90;;;12.00;99.90;;;;;;5156435;27;20019;-70
2023/10/25 10:36:00;;;;;;;1999.90;999.90;;;12.00;99.90;;;;;;5155594;27;20080;-70
2023/10/25 10:38:26;;;;;;;1999.90;999.90;;;11.90;99.90;;;;;;5156791;27;20028;-70
2023/10/25 10:40:51;;;;;;;1999.90;999.90;;;12.00;99.90;;;;;;5156688;27;20031;-70
2023/10/25 10:43:20;;;;;;;1999.90;999.90;;;11.90;99.90;;;;;;5156610;27;20484;-70
2023/10/25 10:45:50;;;;;;;1999.90;999.90;;;11.90;99.90;;;;;;5154517;27;20565;-70
2023/10/25 10:48:21;;;;;;;1999.90;999.90;;;11.90;99.90;;;;;;5156334;27;20084;-70
2023/10/25 10:50:47;;;;;;;1999.90;999.90;;;11.80;99.90;;;;;;5156308;27;20122;-70
2023/10/25 10:53:13;;;;;;;1999.90;999.90;;;11.80;99.90;;;;;;5156616;27;20034;-70
2023/10/25 10:55:40;;;;;;;1999.90;999.90;;;11.70;99.90;;;;;;5155982;27;20039;-70
2023/10/25 10:58:05;;;;;;;1999.90;999.90;;;11.70;99.90;;;;;;5156694;27;20102;-70
2023/10/25 11:00:31;;;;;;;1999.90;999.90;;;11.70;99.90;;;;;;5160073;27;20043;-70
2023/10/25 11:03:00;;;;;;;1999.90;999.90;;;11.80;99.90;;;;;;5158640;27;20035;-70
2023/10/25 11:05:26;;;;;;;1999.90;999.90;;;11.80;99.90;;;;;;5159449;27;20092;-70
2023/10/25 11:07:53;;;;;;;1999.90;999.90;;;11.90;99.90;;;;;;5159769;27;20169;-70
2023/10/25 11:10:19;;;;;;;1999.90;999.90;;;12.00;99.90;;;;;;5159904;27;20027;-70
2023/10/25 11:12:45;;;;;;;1999.90;999.90;;;12.10;99.90;;;;;;5159952;27;20504;-70
2023/10/25 11:15:12;;;;;;;1999.90;999.90;;;12.20;99.90;;;;;;5159737;27;20110;-70
2023/10/25 11:17:38;;;;;;;1999.90;999.90;;;12.20;99.90;;;;;;5159579;27;20023;-70
2023/10/25 11:20:04;;;;;;;1999.90;999.90;;;12.20;99.90;;;;;;5159676;27;20553;-70
2023/10/25 11:22:31;;;;;;;1999.90;999.90;;;12.20;99.90;;;;;;5159989;27;20542;-70
2023/10/25 11:24:57;;;;;;;1999.90;999.90;;;12.10;99.90;;;;;;5159670;27;20062;-70
2023/10/25 11:27:31;;;;;;;1999.90;999.90;;;12.20;99.90;;;;;;5159412;27;20038;-70
2023/10/25 11:29:58;;;;;;;1999.90;999.90;;;12.20;99.90;;;;;;5158100;27;20134;-71
2023/10/25 11:32:23;;;;;;;1999.90;999.90;;;12.20;99.90;;;;;;5159447;27;20027;-70
2023/10/25 11:34:54;;;;;;;1999.90;999.90;;;12.20;99.90;;;;;;5162781;22;20044;-76
2023/10/25 11:37:20;;;;;;;1999.90;999.90;;;12.20;99.90;;;;;;5117658;28;20032;-73
2023/10/25 11:39:59;;;;;;;1999.90;999.90;;;12.30;99.90;;;;;;5118116;28;20031;-73
2023/10/25 11:42:29;;;;;;;1999.90;999.90;;;12.30;99.90;;;;;;5117902;28;20058;-73
2023/10/25 11:44:55;;;;;;;1999.90;999.90;;;12.40;99.90;;;;;;5099911;28;20472;-73
2023/10/25 11:47:21;;;;;;;1999.90;999.90;;;12.50;99.90;;;;;;5119241;28;20028;-72
2023/10/25 11:49:55;;;;;;;1999.90;999.90;;;12.50;99.90;;;;;;5100844;28;20121;-73
2023/10/25 11:52:26;;;;;;;1999.90;999.90;;;12.60;99.90;;;;;;5117762;28;20511;-72
2023/10/25 11:54:55;;;;;;;1999.90;999.90;;;12.80;99.90;;;;;;5117842;28;20060;-73
2023/10/25 11:57:36;;;;;;;1999.90;999.90;;;12.90;99.90;;;;;;5117448;28;20032;-73
2023/10/25 12:00:03;;;;;;;1999.90;999.90;;;13.10;99.90;;;;;;5117624;28;20036;-72
2023/10/25 12:02:29;;;;;;;1999.90;999.90;;;13.10;99.90;;;;;;5117693;28;20481;-73
2023/10/25 12:04:55;;;;;;;1999.90;999.90;;;13.20;99.90;;;;;;5117442;28;20086;-73